sensor_id;sensor_type;location;lat;lon;timestamp;P1;durP1;ratioP1;P2;durP2;ratioP2
20318;SDS011;10317;47.254;11.314;2022-11-20T00:01:27;8.55;;;5.88;;
20318;SDS011;10317;47.254;11.314;2022-11-20T00:03:54;7.18;;;5.53;;
20318;SDS011;10317;47.254;11.314;2022-11-20T00:06:21;6.82;;;5.72;;
20318;SDS011;10317;47.254;11.314;2022-11-20T00:08:47;8.73;;;6.60;;
20318;SDS011;10317;47.254;11.314;2022-11-20T00:11:19;6.43;;;5.78;;
20318;SDS011;10317;47.254;11.314;2022-11-20T00:13:48;7.88;;;5.22;;
20318;SDS011;10317;47.254;11.314;2022-11-20T00:16:16;8.23;;;6.68;;
20318;SDS011;10317;47.254;11.314;2022-11-20T00:18:44;7.10;;;5.75;;
20318;SDS011;10317;47.254;11.314;2022-11-20T00:21:11;7.05;;;5.30;;
20318;SDS011;10317;47.254;11.314;2022-11-20T00:23:38;5.03;;;4.63;;
20318;SDS011;10317;47.254;11.314;2022-11-20T00:26:05;5.60;;;5.05;;
20318;SDS011;10317;47.254;11.314;2022-11-20T00:28:32;6.60;;;5.07;;
20318;SDS011;10317;47.254;11.314;2022-11-20T00:31:02;7.78;;;5.65;;
20318;SDS011;10317;47.254;11.314;2022-11-20T00:33:31;8.35;;;5.43;;
20318;SDS011;10317;47.254;11.314;2022-11-20T00:36:00;8.88;;;5.45;;
20318;SDS011;10317;47.254;11.314;2022-11-20T00:38:35;5.65;;;5.00;;
20318;SDS011;10317;47.254;11.314;2022-11-20T00:41:02;7.70;;;5.65;;
20318;SDS011;10317;47.254;11.314;2022-11-20T00:43:29;7.55;;;5.97;;
20318;SDS011;10317;47.254;11.314;2022-11-20T00:45:56;6.82;;;5.13;;
20318;SDS011;10317;47.254;11.314;2022-11-20T00:48:26;8.68;;;6.00;;
20318;SDS011;10317;47.254;11.314;2022-11-20T00:50:52;7.22;;;6.40;;
20318;SDS011;10317;47.254;11.314;2022-11-20T00:53:18;7.90;;;5.63;;
20318;SDS011;10317;47.254;11.314;2022-11-20T00:55:57;9.45;;;5.72;;
20318;SDS011;10317;47.254;11.314;2022-11-20T00:58:29;5.47;;;4.85;;
20318;SDS011;10317;47.254;11.314;2022-11-20T01:01:04;8.15;;;5.40;;
20318;SDS011;10317;47.254;11.314;2022-11-20T01:03:39;8.10;;;5.65;;
20318;SDS011;10317;47.254;11.314;2022-11-20T01:06:10;6.38;;;5.50;;
20318;SDS011;10317;47.254;11.314;2022-11-20T01:08:36;6.95;;;6.25;;
20318;SDS011;10317;47.254;11.314;2022-11-20T01:11:10;6.50;;;5.75;;
20318;SDS011;10317;47.254;11.314;2022-11-20T01:13:37;6.15;;;5.05;;
20318;SDS011;10317;47.254;11.314;2022-11-20T01:16:17;6.18;;;5.10;;
20318;SDS011;10317;47.254;11.314;2022-11-20T01:18:51;9.05;;;4.97;;
20318;SDS011;10317;47.254;11.314;2022-11-20T01:21:20;6.50;;;5.63;;
20318;SDS011;10317;47.254;11.314;2022-11-20T01:23:51;6.07;;;5.40;;
20318;SDS011;10317;47.254;11.314;2022-11-20T01:26:18;6.20;;;4.80;;
20318;SDS011;10317;47.254;11.314;2022-11-20T01:28:49;6.65;;;5.43;;
20318;SDS011;10317;47.254;11.314;2022-11-20T01:31:22;6.07;;;5.47;;
20318;SDS011;10317;47.254;11.314;2022-11-20T01:33:53;5.70;;;5.05;;
20318;SDS011;10317;47.254;11.314;2022-11-20T01:36:22;7.05;;;5.63;;
20318;SDS011;10317;47.254;11.314;2022-11-20T01:38:53;7.13;;;6.20;;
20318;SDS011;10317;47.254;11.314;2022-11-20T01:41:20;9.10;;;6.05;;
20318;SDS011;10317;47.254;11.314;2022-11-20T01:44:06;8.98;;;6.10;;
20318;SDS011;10317;47.254;11.314;2022-11-20T01:46:33;6.03;;;5.07;;
20318;SDS011;10317;47.254;11.314;2022-11-20T01:51:49;6.75;;;5.55;;
20318;SDS011;10317;47.254;11.314;2022-11-20T01:54:22;5.82;;;5.22;;
20318;SDS011;10317;47.254;11.314;2022-11-20T01:57:00;7.75;;;5.32;;
20318;SDS011;10317;47.254;11.314;2022-11-20T01:59:28;6.22;;;5.45;;
20318;SDS011;10317;47.254;11.314;2022-11-20T02:01:55;8.45;;;5.40;;
20318;SDS011;10317;47.254;11.314;2022-11-20T02:04:21;8.63;;;5.75;;
20318;SDS011;10317;47.254;11.314;2022-11-20T02:06:49;8.85;;;5.93;;
20318;SDS011;10317;47.254;11.314;2022-11-20T02:09:34;5.80;;;5.10;;
20318;SDS011;10317;47.254;11.314;2022-11-20T02:12:00;6.43;;;5.20;;
20318;SDS011;10317;47.254;11.314;2022-11-20T02:14:26;9.48;;;5.88;;
20318;SDS011;10317;47.254;11.314;2022-11-20T02:16:52;7.95;;;5.35;;
20318;SDS011;10317;47.254;11.314;2022-11-20T02:19:27;5.18;;;4.68;;
20318;SDS011;10317;47.254;11.314;2022-11-20T02:22:14;5.90;;;5.03;;
20318;SDS011;10317;47.254;11.314;2022-11-20T02:24:45;6.45;;;5.82;;
20318;SDS011;10317;47.254;11.314;2022-11-20T02:27:29;7.47;;;5.43;;
20318;SDS011;10317;47.254;11.314;2022-11-20T02:29:57;8.95;;;5.05;;
20318;SDS011;10317;47.254;11.314;2022-11-20T02:32:28;7.10;;;5.53;;
20318;SDS011;10317;47.254;11.314;2022-11-20T02:34:56;7.60;;;5.40;;
20318;SDS011;10317;47.254;11.314;2022-11-20T02:37:22;7.78;;;5.13;;
20318;SDS011;10317;47.254;11.314;2022-11-20T02:39:53;6.80;;;5.43;;
20318;SDS011;10317;47.254;11.314;2022-11-20T02:42:18;6.72;;;5.40;;
20318;SDS011;10317;47.254;11.314;2022-11-20T02:44:44;6.95;;;5.80;;
20318;SDS011;10317;47.254;11.314;2022-11-20T02:47:10;6.00;;;5.28;;
20318;SDS011;10317;47.254;11.314;2022-11-20T02:49:35;6.18;;;5.55;;
20318;SDS011;10317;47.254;11.314;2022-11-20T02:52:01;5.93;;;5.32;;
20318;SDS011;10317;47.254;11.314;2022-11-20T02:54:27;6.18;;;5.57;;
20318;SDS011;10317;47.254;11.314;2022-11-20T02:56:53;7.80;;;5.82;;
20318;SDS011;10317;47.254;11.314;2022-11-20T02:59:18;5.55;;;4.95;;
20318;SDS011;10317;47.254;11.314;2022-11-20T03:01:44;5.43;;;4.93;;
20318;SDS011;10317;47.254;11.314;2022-11-20T03:04:10;6.60;;;5.00;;
20318;SDS011;10317;47.254;11.314;2022-11-20T03:06:35;5.88;;;5.22;;
20318;SDS011;10317;47.254;11.314;2022-11-20T03:09:01;5.68;;;5.28;;
20318;SDS011;10317;47.254;11.314;2022-11-20T03:11:27;6.00;;;5.22;;
20318;SDS011;10317;47.254;11.314;2022-11-20T03:13:53;5.60;;;5.00;;
20318;SDS011;10317;47.254;11.314;2022-11-20T03:16:20;7.28;;;5.68;;
20318;SDS011;10317;47.254;11.314;2022-11-20T03:18:46;7.80;;;5.75;;
20318;SDS011;10317;47.254;11.314;2022-11-20T03:21:13;5.40;;;4.90;;
20318;SDS011;10317;47.254;11.314;2022-11-20T03:23:40;5.88;;;5.28;;
20318;SDS011;10317;47.254;11.314;2022-11-20T03:28:41;5.88;;;4.95;;
20318;SDS011;10317;47.254;11.314;2022-11-20T03:31:12;6.70;;;5.38;;
20318;SDS011;10317;47.254;11.314;2022-11-20T03:33:39;8.82;;;5.75;;
20318;SDS011;10317;47.254;11.314;2022-11-20T03:36:06;5.60;;;5.10;;
20318;SDS011;10317;47.254;11.314;2022-11-20T03:38:34;6.72;;;5.53;;
20318;SDS011;10317;47.254;11.314;2022-11-20T03:41:01;6.90;;;5.78;;
20318;SDS011;10317;47.254;11.314;2022-11-20T03:43:32;7.15;;;5.53;;
20318;SDS011;10317;47.254;11.314;2022-11-20T03:45:58;6.28;;;5.28;;
20318;SDS011;10317;47.254;11.314;2022-11-20T03:48:24;5.88;;;5.03;;
20318;SDS011;10317;47.254;11.314;2022-11-20T03:50:51;7.00;;;5.78;;
20318;SDS011;10317;47.254;11.314;2022-11-20T03:53:17;7.65;;;5.63;;
20318;SDS011;10317;47.254;11.314;2022-11-20T03:55:43;6.35;;;4.80;;
20318;SDS011;10317;47.254;11.314;2022-11-20T03:58:09;5.63;;;4.85;;
20318;SDS011;10317;47.254;11.314;2022-11-20T04:00:35;7.03;;;6.40;;
20318;SDS011;10317;47.254;11.314;2022-11-20T04:03:01;15.23;;;11.63;;
20318;SDS011;10317;47.254;11.314;2022-11-20T04:05:27;15.65;;;11.02;;
20318;SDS011;10317;47.254;11.314;2022-11-20T04:07:53;7.68;;;6.80;;
20318;SDS011;10317;47.254;11.314;2022-11-20T04:10:19;8.77;;;5.50;;
20318;SDS011;10317;47.254;11.314;2022-11-20T04:12:45;6.25;;;5.65;;
20318;SDS011;10317;47.254;11.314;2022-11-20T04:15:10;6.88;;;5.47;;
20318;SDS011;10317;47.254;11.314;2022-11-20T04:17:36;7.45;;;6.07;;
20318;SDS011;10317;47.254;11.314;2022-11-20T04:20:02;8.35;;;5.78;;
20318;SDS011;10317;47.254;11.314;2022-11-20T04:22:28;7.30;;;5.03;;
20318;SDS011;10317;47.254;11.314;2022-11-20T04:24:54;9.93;;;7.05;;
20318;SDS011;10317;47.254;11.314;2022-11-20T04:27:19;8.82;;;6.80;;
20318;SDS011;10317;47.254;11.314;2022-11-20T04:29:45;6.55;;;5.90;;
20318;SDS011;10317;47.254;11.314;2022-11-20T04:32:11;6.07;;;5.47;;
20318;SDS011;10317;47.254;11.314;2022-11-20T04:34:36;6.72;;;6.00;;
20318;SDS011;10317;47.254;11.314;2022-11-20T04:37:02;5.82;;;5.22;;
20318;SDS011;10317;47.254;11.314;2022-11-20T04:39:28;5.50;;;4.82;;
20318;SDS011;10317;47.254;11.314;2022-11-20T04:41:53;6.07;;;5.07;;
20318;SDS011;10317;47.254;11.314;2022-11-20T04:44:39;7.50;;;5.75;;
20318;SDS011;10317;47.254;11.314;2022-11-20T04:47:05;9.57;;;6.00;;
20318;SDS011;10317;47.254;11.314;2022-11-20T04:49:30;6.20;;;5.60;;
20318;SDS011;10317;47.254;11.314;2022-11-20T04:51:57;9.38;;;5.38;;
20318;SDS011;10317;47.254;11.314;2022-11-20T04:54:23;9.68;;;6.88;;
20318;SDS011;10317;47.254;11.314;2022-11-20T04:56:49;7.85;;;5.75;;
20318;SDS011;10317;47.254;11.314;2022-11-20T04:59:15;7.60;;;6.57;;
20318;SDS011;10317;47.254;11.314;2022-11-20T05:01:41;5.93;;;5.22;;
20318;SDS011;10317;47.254;11.314;2022-11-20T05:04:07;6.70;;;5.18;;
20318;SDS011;10317;47.254;11.314;2022-11-20T05:06:33;7.75;;;5.93;;
20318;SDS011;10317;47.254;11.314;2022-11-20T05:08:59;5.03;;;4.47;;
20318;SDS011;10317;47.254;11.314;2022-11-20T05:11:26;7.63;;;5.47;;
20318;SDS011;10317;47.254;11.314;2022-11-20T05:13:54;5.63;;;5.10;;
20318;SDS011;10317;47.254;11.314;2022-11-20T05:16:23;7.60;;;6.28;;
20318;SDS011;10317;47.254;11.314;2022-11-20T05:18:50;8.15;;;5.72;;
20318;SDS011;10317;47.254;11.314;2022-11-20T05:21:17;10.63;;;6.10;;
20318;SDS011;10317;47.254;11.314;2022-11-20T05:23:43;6.47;;;5.63;;
20318;SDS011;10317;47.254;11.314;2022-11-20T05:26:13;7.22;;;5.70;;
20318;SDS011;10317;47.254;11.314;2022-11-20T05:28:40;7.50;;;6.00;;
20318;SDS011;10317;47.254;11.314;2022-11-20T05:31:07;9.98;;;6.80;;
20318;SDS011;10317;47.254;11.314;2022-11-20T05:33:34;7.38;;;5.70;;
20318;SDS011;10317;47.254;11.314;2022-11-20T05:36:01;9.25;;;6.05;;
20318;SDS011;10317;47.254;11.314;2022-11-20T05:38:28;9.85;;;7.53;;
20318;SDS011;10317;47.254;11.314;2022-11-20T05:40:53;7.95;;;6.22;;
20318;SDS011;10317;47.254;11.314;2022-11-20T05:43:19;7.15;;;5.90;;
20318;SDS011;10317;47.254;11.314;2022-11-20T05:45:51;7.43;;;6.72;;
20318;SDS011;10317;47.254;11.314;2022-11-20T05:48:20;8.48;;;6.40;;
20318;SDS011;10317;47.254;11.314;2022-11-20T05:50:47;7.03;;;6.28;;
20318;SDS011;10317;47.254;11.314;2022-11-20T05:53:13;10.20;;;6.53;;
20318;SDS011;10317;47.254;11.314;2022-11-20T05:55:38;6.43;;;5.75;;
20318;SDS011;10317;47.254;11.314;2022-11-20T05:58:04;8.82;;;6.35;;
20318;SDS011;10317;47.254;11.314;2022-11-20T06:00:30;6.20;;;5.60;;
20318;SDS011;10317;47.254;11.314;2022-11-20T06:02:55;8.45;;;6.07;;
20318;SDS011;10317;47.254;11.314;2022-11-20T06:05:21;9.05;;;6.18;;
20318;SDS011;10317;47.254;11.314;2022-11-20T06:07:47;6.88;;;6.18;;
20318;SDS011;10317;47.254;11.314;2022-11-20T06:10:12;9.38;;;6.38;;
20318;SDS011;10317;47.254;11.314;2022-11-20T06:12:38;6.43;;;5.80;;
20318;SDS011;10317;47.254;11.314;2022-11-20T06:15:04;6.60;;;5.90;;
20318;SDS011;10317;47.254;11.314;2022-11-20T06:17:30;7.07;;;6.18;;
20318;SDS011;10317;47.254;11.314;2022-11-20T06:19:56;6.75;;;5.72;;
20318;SDS011;10317;47.254;11.314;2022-11-20T06:22:22;7.53;;;5.75;;
20318;SDS011;10317;47.254;11.314;2022-11-20T06:24:47;8.90;;;6.18;;
20318;SDS011;10317;47.254;11.314;2022-11-20T06:27:13;7.00;;;5.40;;
20318;SDS011;10317;47.254;11.314;2022-11-20T06:29:39;6.03;;;5.40;;
20318;SDS011;10317;47.254;11.314;2022-11-20T06:32:04;6.75;;;5.95;;
20318;SDS011;10317;47.254;11.314;2022-11-20T06:34:30;6.18;;;5.57;;
20318;SDS011;10317;47.254;11.314;2022-11-20T06:36:58;6.40;;;5.80;;
20318;SDS011;10317;47.254;11.314;2022-11-20T06:39:24;6.25;;;5.15;;
20318;SDS011;10317;47.254;11.314;2022-11-20T06:41:49;6.95;;;5.05;;
20318;SDS011;10317;47.254;11.314;2022-11-20T06:44:15;5.47;;;4.97;;
20318;SDS011;10317;47.254;11.314;2022-11-20T06:46:40;8.32;;;5.57;;
20318;SDS011;10317;47.254;11.314;2022-11-20T06:49:06;5.65;;;5.15;;
20318;SDS011;10317;47.254;11.314;2022-11-20T06:51:32;6.63;;;5.13;;
20318;SDS011;10317;47.254;11.314;2022-11-20T06:53:57;5.78;;;5.22;;
20318;SDS011;10317;47.254;11.314;2022-11-20T06:56:23;6.60;;;5.93;;
20318;SDS011;10317;47.254;11.314;2022-11-20T06:58:49;8.50;;;5.75;;
20318;SDS011;10317;47.254;11.314;2022-11-20T07:01:15;5.90;;;5.30;;
20318;SDS011;10317;47.254;11.314;2022-11-20T07:03:41;9.32;;;5.88;;
20318;SDS011;10317;47.254;11.314;2022-11-20T07:06:08;6.38;;;5.63;;
20318;SDS011;10317;47.254;11.314;2022-11-20T07:08:34;9.40;;;6.07;;
20318;SDS011;10317;47.254;11.314;2022-11-20T07:11:01;8.73;;;5.95;;
20318;SDS011;10317;47.254;11.314;2022-11-20T07:13:29;7.78;;;5.63;;
20318;SDS011;10317;47.254;11.314;2022-11-20T07:15:58;8.68;;;5.22;;
20318;SDS011;10317;47.254;11.314;2022-11-20T07:18:28;6.15;;;5.55;;
20318;SDS011;10317;47.254;11.314;2022-11-20T07:20:54;6.45;;;5.45;;
20318;SDS011;10317;47.254;11.314;2022-11-20T07:23:20;6.32;;;5.22;;
20318;SDS011;10317;47.254;11.314;2022-11-20T07:25:46;7.47;;;5.00;;
20318;SDS011;10317;47.254;11.314;2022-11-20T07:28:12;5.05;;;4.55;;
20318;SDS011;10317;47.254;11.314;2022-11-20T07:30:38;8.85;;;5.93;;
20318;SDS011;10317;47.254;11.314;2022-11-20T07:33:04;6.13;;;5.55;;
20318;SDS011;10317;47.254;11.314;2022-11-20T07:35:30;5.47;;;4.82;;
20318;SDS011;10317;47.254;11.314;2022-11-20T07:37:55;6.55;;;5.65;;
20318;SDS011;10317;47.254;11.314;2022-11-20T07:40:21;5.55;;;5.05;;
20318;SDS011;10317;47.254;11.314;2022-11-20T07:42:50;5.47;;;4.97;;
20318;SDS011;10317;47.254;11.314;2022-11-20T07:45:18;6.40;;;5.80;;
20318;SDS011;10317;47.254;11.314;2022-11-20T07:47:44;5.50;;;4.68;;
20318;SDS011;10317;47.254;11.314;2022-11-20T07:50:10;5.90;;;5.30;;
20318;SDS011;10317;47.254;11.314;2022-11-20T07:52:36;8.77;;;5.03;;
20318;SDS011;10317;47.254;11.314;2022-11-20T07:55:02;6.40;;;5.80;;
20318;SDS011;10317;47.254;11.314;2022-11-20T07:57:28;5.65;;;4.85;;
20318;SDS011;10317;47.254;11.314;2022-11-20T07:59:53;6.47;;;4.97;;
20318;SDS011;10317;47.254;11.314;2022-11-20T08:02:19;5.78;;;5.15;;
20318;SDS011;10317;47.254;11.314;2022-11-20T08:04:45;6.00;;;5.05;;
20318;SDS011;10317;47.254;11.314;2022-11-20T08:07:10;7.13;;;5.63;;
20318;SDS011;10317;47.254;11.314;2022-11-20T08:09:36;5.78;;;5.28;;
20318;SDS011;10317;47.254;11.314;2022-11-20T08:12:02;8.50;;;6.43;;
20318;SDS011;10317;47.254;11.314;2022-11-20T08:14:46;6.72;;;5.72;;
20318;SDS011;10317;47.254;11.314;2022-11-20T08:17:13;10.50;;;6.75;;
20318;SDS011;10317;47.254;11.314;2022-11-20T08:19:39;9.98;;;6.50;;
20318;SDS011;10317;47.254;11.314;2022-11-20T08:22:05;7.20;;;6.50;;
20318;SDS011;10317;47.254;11.314;2022-11-20T08:24:30;10.60;;;8.30;;
20318;SDS011;10317;47.254;11.314;2022-11-20T08:26:57;8.07;;;7.25;;
20318;SDS011;10317;47.254;11.314;2022-11-20T08:29:24;8.95;;;6.10;;
20318;SDS011;10317;47.254;11.314;2022-11-20T08:31:50;7.60;;;6.80;;
20318;SDS011;10317;47.254;11.314;2022-11-20T08:34:16;8.05;;;7.15;;
20318;SDS011;10317;47.254;11.314;2022-11-20T08:36:42;9.35;;;7.00;;
20318;SDS011;10317;47.254;11.314;2022-11-20T08:39:07;10.68;;;8.00;;
20318;SDS011;10317;47.254;11.314;2022-11-20T08:41:36;11.23;;;7.90;;
20318;SDS011;10317;47.254;11.314;2022-11-20T08:44:03;7.88;;;7.07;;
20318;SDS011;10317;47.254;11.314;2022-11-20T08:46:35;11.55;;;8.23;;
20318;SDS011;10317;47.254;11.314;2022-11-20T08:49:07;8.35;;;7.25;;
20318;SDS011;10317;47.254;11.314;2022-11-20T08:51:34;8.15;;;7.10;;
20318;SDS011;10317;47.254;11.314;2022-11-20T08:54:00;8.15;;;7.35;;
20318;SDS011;10317;47.254;11.314;2022-11-20T08:56:30;11.48;;;7.60;;
20318;SDS011;10317;47.254;11.314;2022-11-20T08:58:55;8.73;;;7.35;;
20318;SDS011;10317;47.254;11.314;2022-11-20T09:01:23;10.25;;;7.65;;
20318;SDS011;10317;47.254;11.314;2022-11-20T09:03:56;9.20;;;7.72;;
20318;SDS011;10317;47.254;11.314;2022-11-20T09:06:22;11.85;;;8.50;;
20318;SDS011;10317;47.254;11.314;2022-11-20T09:08:51;9.25;;;7.63;;
20318;SDS011;10317;47.254;11.314;2022-11-20T09:11:20;8.48;;;7.55;;
20318;SDS011;10317;47.254;11.314;2022-11-20T09:13:46;10.65;;;7.35;;
20318;SDS011;10317;47.254;11.314;2022-11-20T09:16:12;10.80;;;7.93;;
20318;SDS011;10317;47.254;11.314;2022-11-20T09:18:38;9.55;;;7.53;;
20318;SDS011;10317;47.254;11.314;2022-11-20T09:21:08;8.98;;;6.78;;
20318;SDS011;10317;47.254;11.314;2022-11-20T09:23:36;8.20;;;6.90;;
20318;SDS011;10317;47.254;11.314;2022-11-20T09:26:06;9.93;;;6.63;;
20318;SDS011;10317;47.254;11.314;2022-11-20T09:28:35;11.73;;;7.07;;
20318;SDS011;10317;47.254;11.314;2022-11-20T09:31:00;9.85;;;7.68;;
20318;SDS011;10317;47.254;11.314;2022-11-20T09:33:31;7.35;;;6.60;;
20318;SDS011;10317;47.254;11.314;2022-11-20T09:35:56;12.18;;;7.28;;
20318;SDS011;10317;47.254;11.314;2022-11-20T09:38:22;6.47;;;5.88;;
20318;SDS011;10317;47.254;11.314;2022-11-20T09:41:14;9.60;;;6.32;;
20318;SDS011;10317;47.254;11.314;2022-11-20T09:46:47;7.00;;;6.30;;
20318;SDS011;10317;47.254;11.314;2022-11-20T09:49:42;7.57;;;6.30;;
20318;SDS011;10317;47.254;11.314;2022-11-20T09:52:28;7.68;;;6.20;;
20318;SDS011;10317;47.254;11.314;2022-11-20T09:55:14;11.10;;;7.00;;
20318;SDS011;10317;47.254;11.314;2022-11-20T09:57:42;8.55;;;5.78;;
20318;SDS011;10317;47.254;11.314;2022-11-20T10:00:12;7.30;;;6.53;;
20318;SDS011;10317;47.254;11.314;2022-11-20T10:05:13;7.78;;;6.60;;
20318;SDS011;10317;47.254;11.314;2022-11-20T10:07:48;9.07;;;7.03;;
20318;SDS011;10317;47.254;11.314;2022-11-20T10:10:28;8.57;;;7.15;;
20318;SDS011;10317;47.254;11.314;2022-11-20T10:18:54;8.35;;;6.75;;
20318;SDS011;10317;47.254;11.314;2022-11-20T10:21:33;8.75;;;7.03;;
20318;SDS011;10317;47.254;11.314;2022-11-20T10:29:43;7.47;;;6.53;;
20318;SDS011;10317;47.254;11.314;2022-11-20T10:32:20;9.65;;;5.90;;
20318;SDS011;10317;47.254;11.314;2022-11-20T10:37:49;10.55;;;6.47;;
20318;SDS011;10317;47.254;11.314;2022-11-20T10:40:33;9.27;;;6.80;;
20318;SDS011;10317;47.254;11.314;2022-11-20T10:43:07;8.07;;;6.68;;
20318;SDS011;10317;47.254;11.314;2022-11-20T10:48:24;9.35;;;6.72;;
20318;SDS011;10317;47.254;11.314;2022-11-20T10:51:15;7.47;;;6.40;;
20318;SDS011;10317;47.254;11.314;2022-11-20T10:53:50;13.18;;;6.53;;
20318;SDS011;10317;47.254;11.314;2022-11-20T10:56:42;8.32;;;5.53;;
20318;SDS011;10317;47.254;11.314;2022-11-20T11:02:14;7.50;;;6.65;;
20318;SDS011;10317;47.254;11.314;2022-11-20T11:04:48;7.70;;;6.07;;
20318;SDS011;10317;47.254;11.314;2022-11-20T11:07:33;8.77;;;6.25;;
20318;SDS011;10317;47.254;11.314;2022-11-20T11:10:19;9.18;;;5.80;;
20318;SDS011;10317;47.254;11.314;2022-11-20T11:12:49;7.57;;;5.60;;
20318;SDS011;10317;47.254;11.314;2022-11-20T11:15:25;5.88;;;4.82;;
20318;SDS011;10317;47.254;11.314;2022-11-20T11:17:51;5.75;;;5.15;;
20318;SDS011;10317;47.254;11.314;2022-11-20T11:20:21;9.93;;;6.18;;
20318;SDS011;10317;47.254;11.314;2022-11-20T11:22:53;8.23;;;5.63;;
20318;SDS011;10317;47.254;11.314;2022-11-20T11:25:22;6.45;;;5.32;;
20318;SDS011;10317;47.254;11.314;2022-11-20T11:28:01;7.00;;;5.60;;
20318;SDS011;10317;47.254;11.314;2022-11-20T11:30:47;5.55;;;5.05;;
20318;SDS011;10317;47.254;11.314;2022-11-20T11:33:22;7.85;;;5.53;;
20318;SDS011;10317;47.254;11.314;2022-11-20T11:38:28;5.22;;;4.72;;
20318;SDS011;10317;47.254;11.314;2022-11-20T11:40:57;5.07;;;4.63;;
20318;SDS011;10317;47.254;11.314;2022-11-20T11:43:24;5.55;;;4.75;;
20318;SDS011;10317;47.254;11.314;2022-11-20T11:48:59;5.45;;;4.07;;
20318;SDS011;10317;47.254;11.314;2022-11-20T11:52:03;4.18;;;3.78;;
20318;SDS011;10317;47.254;11.314;2022-11-20T11:54:55;5.10;;;4.60;;
20318;SDS011;10317;47.254;11.314;2022-11-20T12:05:23;4.20;;;3.80;;
20318;SDS011;10317;47.254;11.314;2022-11-20T12:15:59;4.45;;;4.05;;
20318;SDS011;10317;47.254;11.314;2022-11-20T12:18:29;4.35;;;3.95;;
20318;SDS011;10317;47.254;11.314;2022-11-20T12:39:52;3.33;;;3.03;;
20318;SDS011;10317;47.254;11.314;2022-11-20T12:45:32;3.53;;;3.03;;
20318;SDS011;10317;47.254;11.314;2022-11-20T12:51:11;2.78;;;2.53;;
20318;SDS011;10317;47.254;11.314;2022-11-20T13:02:27;3.42;;;2.90;;
20318;SDS011;10317;47.254;11.314;2022-11-20T13:07:51;3.50;;;2.42;;
20318;SDS011;10317;47.254;11.314;2022-11-20T13:11:03;2.58;;;2.30;;
20318;SDS011;10317;47.254;11.314;2022-11-20T13:14:00;2.53;;;2.33;;
20318;SDS011;10317;47.254;11.314;2022-11-20T13:18:54;2.00;;;1.90;;
20318;SDS011;10317;47.254;11.314;2022-11-20T13:21:21;3.65;;;2.20;;
20318;SDS011;10317;47.254;11.314;2022-11-20T13:24:20;2.53;;;2.30;;
20318;SDS011;10317;47.254;11.314;2022-11-20T13:27:02;2.92;;;2.33;;
20318;SDS011;10317;47.254;11.314;2022-11-20T13:29:29;2.75;;;2.00;;
20318;SDS011;10317;47.254;11.314;2022-11-20T13:32:28;2.47;;;2.28;;
20318;SDS011;10317;47.254;11.314;2022-11-20T13:34:51;1.95;;;1.85;;
20318;SDS011;10317;47.254;11.314;2022-11-20T13:37:36;2.72;;;2.20;;
20318;SDS011;10317;47.254;11.314;2022-11-20T13:42:54;1.60;;;1.50;;
20318;SDS011;10317;47.254;11.314;2022-11-20T13:45:23;1.27;;;1.27;;
20318;SDS011;10317;47.254;11.314;2022-11-20T13:47:54;1.10;;;1.10;;
20318;SDS011;10317;47.254;11.314;2022-11-20T13:55:59;1.13;;;1.13;;
20318;SDS011;10317;47.254;11.314;2022-11-20T13:58:31;1.00;;;1.00;;
20318;SDS011;10317;47.254;11.314;2022-11-20T14:01:06;1.05;;;1.05;;
20318;SDS011;10317;47.254;11.314;2022-11-20T14:03:41;0.90;;;0.90;;
20318;SDS011;10317;47.254;11.314;2022-11-20T14:06:41;1.33;;;1.33;;
20318;SDS011;10317;47.254;11.314;2022-11-20T14:09:09;0.90;;;0.90;;
20318;SDS011;10317;47.254;11.314;2022-11-20T14:11:50;0.90;;;0.90;;
20318;SDS011;10317;47.254;11.314;2022-11-20T14:14:17;0.98;;;0.93;;
20318;SDS011;10317;47.254;11.314;2022-11-20T14:16:46;2.17;;;1.40;;
20318;SDS011;10317;47.254;11.314;2022-11-20T14:21:44;0.88;;;0.88;;
20318;SDS011;10317;47.254;11.314;2022-11-20T14:24:13;0.90;;;0.90;;
20318;SDS011;10317;47.254;11.314;2022-11-20T14:26:44;0.80;;;0.80;;
20318;SDS011;10317;47.254;11.314;2022-11-20T14:29:17;0.80;;;0.80;;
20318;SDS011;10317;47.254;11.314;2022-11-20T14:31:53;0.70;;;0.70;;
20318;SDS011;10317;47.254;11.314;2022-11-20T14:34:30;0.80;;;0.80;;
20318;SDS011;10317;47.254;11.314;2022-11-20T14:37:01;0.80;;;0.80;;
20318;SDS011;10317;47.254;11.314;2022-11-20T14:39:33;0.70;;;0.70;;
20318;SDS011;10317;47.254;11.314;2022-11-20T14:42:00;1.00;;;1.00;;
20318;SDS011;10317;47.254;11.314;2022-11-20T14:44:30;0.90;;;0.90;;
20318;SDS011;10317;47.254;11.314;2022-11-20T14:46:59;0.80;;;0.80;;
20318;SDS011;10317;47.254;11.314;2022-11-20T14:49:26;0.80;;;0.80;;
20318;SDS011;10317;47.254;11.314;2022-11-20T14:52:03;0.90;;;0.90;;
20318;SDS011;10317;47.254;11.314;2022-11-20T14:54:44;0.70;;;0.70;;
20318;SDS011;10317;47.254;11.314;2022-11-20T14:59:49;1.30;;;1.20;;
20318;SDS011;10317;47.254;11.314;2022-11-20T15:02:15;1.13;;;1.10;;
20318;SDS011;10317;47.254;11.314;2022-11-20T15:04:56;1.00;;;1.00;;
20318;SDS011;10317;47.254;11.314;2022-11-20T15:07:44;1.05;;;1.00;;
20318;SDS011;10317;47.254;11.314;2022-11-20T15:10:22;1.17;;;1.17;;
20318;SDS011;10317;47.254;11.314;2022-11-20T15:12:50;2.22;;;1.20;;
20318;SDS011;10317;47.254;11.314;2022-11-20T15:15:39;1.20;;;1.10;;
20318;SDS011;10317;47.254;11.314;2022-11-20T15:18:38;1.85;;;1.40;;
20318;SDS011;10317;47.254;11.314;2022-11-20T15:21:13;1.50;;;1.40;;
20318;SDS011;10317;47.254;11.314;2022-11-20T15:23:40;1.42;;;1.10;;
20318;SDS011;10317;47.254;11.314;2022-11-20T15:26:07;1.58;;;1.27;;
20318;SDS011;10317;47.254;11.314;2022-11-20T15:28:42;0.98;;;0.98;;
20318;SDS011;10317;47.254;11.314;2022-11-20T15:31:12;1.33;;;1.33;;
20318;SDS011;10317;47.254;11.314;2022-11-20T15:33:40;1.45;;;1.35;;
20318;SDS011;10317;47.254;11.314;2022-11-20T15:36:07;1.60;;;1.50;;
20318;SDS011;10317;47.254;11.314;2022-11-20T15:38:33;1.58;;;1.45;;
20318;SDS011;10317;47.254;11.314;2022-11-20T15:40:59;1.83;;;1.67;;
20318;SDS011;10317;47.254;11.314;2022-11-20T15:43:25;1.30;;;1.20;;
20318;SDS011;10317;47.254;11.314;2022-11-20T15:45:55;1.42;;;1.42;;
20318;SDS011;10317;47.254;11.314;2022-11-20T15:48:29;4.00;;;1.80;;
20318;SDS011;10317;47.254;11.314;2022-11-20T15:51:11;1.42;;;1.33;;
20318;SDS011;10317;47.254;11.314;2022-11-20T15:53:54;2.15;;;1.50;;
20318;SDS011;10317;47.254;11.314;2022-11-20T15:56:20;1.90;;;1.58;;
20318;SDS011;10317;47.254;11.314;2022-11-20T15:58:46;1.20;;;1.20;;
20318;SDS011;10317;47.254;11.314;2022-11-20T16:01:12;1.60;;;1.48;;
20318;SDS011;10317;47.254;11.314;2022-11-20T16:03:40;2.25;;;1.63;;
20318;SDS011;10317;47.254;11.314;2022-11-20T16:06:06;1.75;;;1.65;;
20318;SDS011;10317;47.254;11.314;2022-11-20T16:08:32;1.48;;;1.40;;
20318;SDS011;10317;47.254;11.314;2022-11-20T16:10:58;3.70;;;1.52;;
20318;SDS011;10317;47.254;11.314;2022-11-20T16:13:24;1.52;;;1.52;;
20318;SDS011;10317;47.254;11.314;2022-11-20T16:16:14;2.13;;;1.60;;
20318;SDS011;10317;47.254;11.314;2022-11-20T16:18:48;3.15;;;1.92;;
20318;SDS011;10317;47.254;11.314;2022-11-20T16:21:14;3.53;;;1.80;;
20318;SDS011;10317;47.254;11.314;2022-11-20T16:23:40;1.70;;;1.60;;
20318;SDS011;10317;47.254;11.314;2022-11-20T16:26:16;1.90;;;1.77;;
20318;SDS011;10317;47.254;11.314;2022-11-20T16:28:43;3.50;;;1.70;;
20318;SDS011;10317;47.254;11.314;2022-11-20T16:31:10;1.73;;;1.63;;
20318;SDS011;10317;47.254;11.314;2022-11-20T16:33:37;3.22;;;1.83;;
20318;SDS011;10317;47.254;11.314;2022-11-20T16:36:10;1.67;;;1.58;;